Time;durP1;ratioP1;P1;durP2;ratioP2;P2;SDS_P1;SDS_P2;PMS_P1;PMS_P2;Temp;Humidity;BMP_temperature;BMP_pressure;BME280_temperature;BME280_humidity;BME280_pressure;Samples;Min_cycle;Max_cycle;Signal;HPM_P1;HPM_P2
2022/07/01 00:00:35;;;;;;;13.40;12.20;;;;;;;22.53;100.00;98814.69;5117286;27;20281;-78
2022/07/01 00:03:03;;;;;;;11.70;10.77;;;;;;;22.47;100.00;98820.59;5109143;27;20261;-78
2022/07/01 00:05:30;;;;;;;12.35;11.35;;;;;;;22.41;100.00;98809.03;5121608;27;20243;-78
2022/07/01 00:07:57;;;;;;;12.35;11.35;;;;;;;22.37;100.00;98808.84;5116659;27;20299;-75
2022/07/01 00:10:24;;;;;;;12.48;11.45;;;;;;;22.36;100.00;98809.16;5098855;28;20736;-74
2022/07/01 00:12:50;;;;;;;12.75;11.57;;;;;;;22.30;100.00;98805.00;5119917;27;20266;-75
2022/07/01 00:15:17;;;;;;;12.52;11.45;;;;;;;22.26;100.00;98804.78;5108025;28;20226;-78
2022/07/01 00:17:44;;;;;;;12.60;11.38;;;;;;;22.21;100.00;98804.16;5110748;28;20233;-80
2022/07/01 00:20:11;;;;;;;12.52;11.48;;;;;;;22.20;100.00;98808.81;5115344;27;20234;-77
2022/07/01 00:22:37;;;;;;;12.50;11.40;;;;;;;22.16;100.00;98816.00;5115523;27;20215;-78
2022/07/01 00:25:05;;;;;;;12.68;11.45;;;;;;;22.15;100.00;98816.31;5115134;27;20253;-78
2022/07/01 00:27:31;;;;;;;13.02;11.73;;;;;;;22.14;100.00;98810.06;5116724;27;20262;-78
2022/07/01 00:29:58;;;;;;;12.95;11.88;;;;;;;22.12;100.00;98811.47;5114143;27;20232;-79
2022/07/01 00:32:24;;;;;;;12.48;11.27;;;;;;;22.11;100.00;98823.53;5117325;27;20236;-75
2022/07/01 00:34:51;;;;;;;12.60;11.68;;;;;;;22.10;100.00;98833.63;5090369;27;20232;-75
2022/07/01 00:37:18;;;;;;;12.25;11.05;;;;;;;22.17;100.00;98833.16;5119824;27;20234;-75
2022/07/01 00:39:45;;;;;;;11.75;10.65;;;;;;;22.35;100.00;98827.47;5114091;27;20222;-74
2022/07/01 00:42:11;;;;;;;11.80;10.80;;;;;;;22.58;100.00;98835.56;5106835;28;20243;-75
2022/07/01 00:44:38;;;;;;;11.20;10.27;;;;;;;22.39;100.00;98835.84;5114832;27;20229;-75
2022/07/01 00:47:11;;;;;;;11.25;10.15;;;;;;;22.36;100.00;98825.53;5115734;27;20282;-79
2022/07/01 00:49:39;;;;;;;11.30;10.30;;;;;;;22.35;100.00;98826.66;5112397;27;20288;-75
2022/07/01 00:52:08;;;;;;;12.00;10.98;;;;;;;22.32;100.00;98825.38;5116823;27;20220;-75
2022/07/01 00:54:36;;;;;;;11.25;10.30;;;;;;;22.33;100.00;98823.44;5121560;27;20336;-75
2022/07/01 00:57:10;;;;;;;10.50;9.70;;;;;;;22.38;100.00;98818.66;5116155;27;20312;-76
2022/07/01 00:59:38;;;;;;;10.40;9.52;;;;;;;22.42;100.00;98804.38;5117473;27;20215;-77
2022/07/01 01:02:07;;;;;;;10.40;9.60;;;;;;;22.39;100.00;98797.63;5115059;27;20278;-76
2022/07/01 01:04:34;;;;;;;10.75;9.85;;;;;;;22.35;100.00;98788.44;5088227;28;20231;-76
2022/07/01 01:07:02;;;;;;;10.27;9.38;;;;;;;22.35;100.00;98794.72;5112680;27;20228;-75
2022/07/01 01:09:33;;;;;;;10.38;9.40;;;;;;;22.37;100.00;98800.66;5096691;28;20263;-76
2022/07/01 01:12:01;;;;;;;10.63;9.63;;;;;;;22.33;100.00;98787.97;5103619;28;20235;-76
2022/07/01 01:14:28;;;;;;;10.45;9.45;;;;;;;22.28;100.00;98790.84;5109663;28;20235;-78
2022/07/01 01:16:54;;;;;;;10.65;9.73;;;;;;;22.25;100.00;98786.03;5111131;28;20231;-76
2022/07/01 01:19:21;;;;;;;10.48;9.48;;;;;;;22.25;100.00;98783.31;5104316;28;20736;-75
2022/07/01 01:21:48;;;;;;;10.43;9.52;;;;;;;22.22;100.00;98784.72;5111961;27;20606;-77
2022/07/01 01:24:14;;;;;;;10.63;9.82;;;;;;;22.17;100.00;98793.06;5111986;27;20769;-75
2022/07/01 01:26:41;;;;;;;10.40;9.55;;;;;;;22.15;100.00;98794.50;5112809;27;20244;-76
2022/07/01 01:29:08;;;;;;;10.25;9.55;;;;;;;22.10;100.00;98794.63;5112126;27;20250;-76
2022/07/01 01:31:35;;;;;;;10.77;9.75;;;;;;;22.11;100.00;98801.72;5122301;27;20227;-76
2022/07/01 01:34:03;;;;;;;10.50;9.60;;;;;;;22.11;100.00;98786.16;5119925;27;20314;-75
2022/07/01 01:36:29;;;;;;;10.38;9.57;;;;;;;22.21;100.00;98771.41;5122083;27;20239;-76
2022/07/01 01:38:59;;;;;;;10.80;10.00;;;;;;;22.21;100.00;98755.06;5113077;27;20646;-75
2022/07/01 01:41:26;;;;;;;10.50;9.60;;;;;;;22.15;100.00;98748.13;5104101;27;20769;-75
2022/07/01 01:43:53;;;;;;;10.75;9.85;;;;;;;22.13;100.00;98747.63;5117484;27;20236;-79
2022/07/01 01:46:20;;;;;;;10.95;10.05;;;;;;;22.14;100.00;98741.88;5112407;27;20222;-75
2022/07/01 01:48:46;;;;;;;10.05;9.25;;;;;;;22.15;100.00;98743.47;5117657;27;20228;-76
2022/07/01 01:51:13;;;;;;;11.32;10.40;;;;;;;22.19;100.00;98743.63;5120932;27;20232;-75
2022/07/01 01:53:40;;;;;;;11.23;10.27;;;;;;;22.20;100.00;98735.16;5122483;27;20646;-76
2022/07/01 01:56:06;;;;;;;10.73;9.73;;;;;;;22.10;100.00;98757.25;5116048;27;20232;-75
2022/07/01 01:58:33;;;;;;;10.40;9.60;;;;;;;22.12;100.00;98793.19;5116472;27;20758;-77
2022/07/01 02:01:01;;;;;;;10.98;10.10;;;;;;;22.12;100.00;98806.81;5109158;27;20258;-77
2022/07/01 02:03:28;;;;;;;11.60;10.50;;;;;;;22.11;100.00;98818.88;5106584;27;20649;-77
2022/07/01 02:05:55;;;;;;;12.75;11.55;;;;;;;22.09;100.00;98829.28;5100441;27;20224;-76
2022/07/01 02:08:22;;;;;;;11.90;11.00;;;;;;;22.09;100.00;98840.19;5099009;27;20293;-76
2022/07/01 02:10:49;;;;;;;12.02;10.90;;;;;;;22.06;100.00;98846.28;5098105;28;20218;-76
2022/07/01 02:13:19;;;;;;;11.80;10.90;;;;;;;22.05;100.00;98860.22;5102565;27;20323;-76
2022/07/01 02:15:46;;;;;;;13.15;11.95;;;;;;;22.05;100.00;98860.22;5102709;27;20221;-77
2022/07/01 02:18:12;;;;;;;13.00;11.63;;;;;;;22.01;100.00;98867.44;5104369;27;20318;-75
2022/07/01 02:20:39;;;;;;;12.55;11.55;;;;;;;22.01;100.00;98873.69;5102119;27;20332;-77
2022/07/01 02:23:06;;;;;;;12.85;11.75;;;;;;;22.01;100.00;98875.63;5105254;27;20719;-77
2022/07/01 02:25:33;;;;;;;12.93;11.68;;;;;;;21.98;100.00;98877.03;5109069;28;20231;-76
2022/07/01 02:28:00;;;;;;;12.63;11.50;;;;;;;21.87;100.00;98873.75;5109155;28;20231;-78
2022/07/01 02:30:27;;;;;;;11.82;10.90;;;;;;;21.83;100.00;98878.22;5119074;27;20651;-77
2022/07/01 02:32:54;;;;;;;12.18;11.07;;;;;;;21.83;100.00;98874.69;5124622;27;20234;-77
2022/07/01 02:35:20;;;;;;;12.05;11.10;;;;;;;21.80;100.00;98886.19;5115891;27;20229;-78
2022/07/01 02:37:47;;;;;;;12.30;11.23;;;;;;;21.79;100.00;98893.56;5120522;27;20229;-77
2022/07/01 02:40:14;;;;;;;11.63;10.73;;;;;;;21.76;100.00;98896.13;5116826;27;20230;-76
2022/07/01 02:42:40;;;;;;;11.85;10.85;;;;;;;21.75;100.00;98887.13;5126408;27;20742;-76
2022/07/01 02:45:10;;;;;;;12.35;11.32;;;;;;;21.76;100.00;98877.84;5111234;27;20604;-76
2022/07/01 02:47:38;;;;;;;12.15;11.05;;;;;;;21.73;100.00;98881.19;5116794;27;20322;-77
2022/07/01 02:50:07;;;;;;;12.80;11.80;;;;;;;21.70;100.00;98881.00;5111604;28;20246;-77
2022/07/01 02:52:35;;;;;;;13.05;11.88;;;;;;;21.66;100.00;98875.34;5119397;27;20311;-77
2022/07/01 02:55:07;;;;;;;11.90;10.85;;;;;;;21.65;100.00;98873.75;5120012;27;20316;-77
2022/07/01 02:57:34;;;;;;;12.73;11.52;;;;;;;21.66;100.00;98874.56;5114596;27;20236;-76
2022/07/01 03:00:05;;;;;;;12.40;11.50;;;;;;;21.66;100.00;98890.91;5097454;27;20706;-77
2022/07/01 03:02:32;;;;;;;12.30;11.32;;;;;;;21.70;100.00;98895.44;5111359;27;20237;-77
2022/07/01 03:04:59;;;;;;;12.55;11.55;;;;;;;21.70;100.00;98909.06;5116839;27;20231;-77
2022/07/01 03:07:26;;;;;;;12.20;11.18;;;;;;;21.75;100.00;98906.22;5118231;27;20254;-76
2022/07/01 03:09:52;;;;;;;13.13;12.10;;;;;;;21.80;100.00;98900.63;5115301;27;20223;-77
2022/07/01 03:12:25;;;;;;;13.13;11.93;;;;;;;21.83;100.00;98886.41;5117547;27;20266;-77
2022/07/01 03:15:03;;;;;;;13.00;11.90;;;;;;;21.84;100.00;98890.72;5111325;27;20234;-77
2022/07/01 03:17:32;;;;;;;12.95;11.93;;;;;;;21.88;100.00;98890.91;5118324;27;20234;-77
2022/07/01 03:20:05;;;;;;;13.18;12.02;;;;;;;21.89;100.00;98898.78;5120835;27;20234;-76
2022/07/01 03:22:32;;;;;;;13.25;12.05;;;;;;;21.92;100.00;98900.91;5124825;27;20231;-77
2022/07/01 03:24:59;;;;;;;13.45;12.35;;;;;;;21.93;100.00;98891.59;5121881;27;20344;-77
2022/07/01 03:27:26;;;;;;;13.85;12.70;;;;;;;21.98;100.00;98898.06;5117284;27;20262;-77
2022/07/01 03:29:53;;;;;;;12.75;11.70;;;;;;;21.86;100.00;98896.69;5098729;28;20310;-77
2022/07/01 03:32:19;;;;;;;13.00;11.98;;;;;;;21.90;100.00;98905.84;5127391;27;20224;-78
2022/07/01 03:34:48;;;;;;;12.15;11.25;;;;;;;21.93;100.00;98894.34;5123671;27;20230;-77
2022/07/01 03:37:15;;;;;;;12.98;11.98;;;;;;;22.00;100.00;98904.81;5127988;27;20315;-77
2022/07/01 03:39:42;;;;;;;13.38;12.27;;;;;;;22.02;100.00;98913.50;5122547;27;20320;-77
2022/07/01 03:42:09;;;;;;;13.65;12.55;;;;;;;22.04;100.00;98908.53;5103160;27;20224;-77
2022/07/01 03:44:36;;;;;;;13.75;12.73;;;;;;;22.10;100.00;98914.66;5108184;27;20223;-77
2022/07/01 03:47:05;;;;;;;14.10;12.80;;;;;;;22.13;100.00;98917.56;5121550;27;20317;-77
2022/07/01 03:49:33;;;;;;;13.40;12.40;;;;;;;22.15;100.00;98917.25;5103017;27;20236;-77
2022/07/01 03:52:01;;;;;;;14.05;12.80;;;;;;;22.21;100.00;98916.03;5117611;27;20238;-80
2022/07/01 03:54:30;;;;;;;14.07;12.63;;;;;;;22.22;100.00;98909.41;5111168;27;20221;-77
2022/07/01 03:57:01;;;;;;;13.50;12.40;;;;;;;22.30;100.00;98905.94;5111115;27;20255;-77
2022/07/01 03:59:28;;;;;;;13.23;12.13;;;;;;;22.38;100.00;98911.44;5111798;27;20842;-76
2022/07/01 04:01:55;;;;;;;13.77;12.68;;;;;;;22.44;100.00;98908.59;5119197;27;20317;-77
2022/07/01 04:04:23;;;;;;;14.98;12.88;;;;;;;22.55;100.00;98902.50;5108999;27;20241;-77
2022/07/01 04:06:51;;;;;;;13.65;12.48;;;;;;;22.96;100.00;98904.91;5111798;27;20239;-79
2022/07/01 04:09:18;;;;;;;12.63;11.65;;;;;;;23.36;100.00;98907.56;5102718;27;20931;-79
2022/07/01 04:11:46;;;;;;;13.23;12.05;;;;;;;23.51;100.00;98887.97;5120442;27;20796;-77
2022/07/01 04:14:13;;;;;;;12.45;11.25;;;;;;;23.81;100.00;98902.56;5112651;27;20327;-78
2022/07/01 04:16:40;;;;;;;12.45;11.45;;;;;;;24.21;100.00;98901.25;5115618;27;20344;-77
2022/07/01 04:19:07;;;;;;;13.65;12.50;;;;;;;24.61;100.00;98909.94;5089401;27;20664;-77
2022/07/01 04:24:19;;;;;;;13.38;12.10;;;;;;;24.92;100.00;98904.16;5108444;27;20273;-77
2022/07/01 04:26:46;;;;;;;13.52;12.43;;;;;;;25.08;100.00;98905.22;5107309;28;20710;-78
2022/07/01 04:29:12;;;;;;;13.60;12.27;;;;;;;25.52;100.00;98924.91;5114024;27;20296;-77
2022/07/01 04:31:40;;;;;;;13.05;11.75;;;;;;;26.47;100.00;98982.50;5118181;27;20236;-78
2022/07/01 04:34:07;;;;;;;25.15;12.60;;;;;;;27.36;100.00;98945.78;5119595;27;20222;-77
2022/07/01 04:36:35;;;;;;;22.00;12.18;;;;;;;28.23;95.11;98918.44;5117721;27;20226;-78
2022/07/01 04:39:03;;;;;;;12.80;11.38;;;;;;;28.64;88.39;98913.59;5112215;27;20230;-77
2022/07/01 04:44:17;;;;;;;13.52;11.65;;;;;;;27.39;100.00;98911.31;5103681;27;20235;-77
2022/07/01 04:46:43;;;;;;;12.35;11.10;;;;;;;26.58;100.00;98920.50;5117649;27;20322;-78
2022/07/01 04:49:10;;;;;;;11.85;10.75;;;;;;;26.10;100.00;98912.94;5087806;27;20239;-77
2022/07/01 04:51:37;;;;;;;12.82;11.63;;;;;;;25.70;100.00;98915.44;5114956;27;20333;-77
2022/07/01 04:54:05;;;;;;;13.07;11.73;;;;;;;25.49;100.00;98918.13;5093495;28;20258;-77
2022/07/01 04:56:33;;;;;;;13.35;12.20;;;;;;;25.30;100.00;98920.53;5106810;27;20233;-77
2022/07/01 04:59:00;;;;;;;12.88;11.63;;;;;;;25.28;100.00;98917.34;5114551;27;20293;-76
2022/07/01 05:01:30;;;;;;;13.13;12.02;;;;;;;25.39;100.00;98919.34;5116022;27;20215;-77
2022/07/01 05:03:57;;;;;;;13.52;12.30;;;;;;;25.63;100.00;98926.13;5114639;27;20232;-77
2022/07/01 05:06:24;;;;;;;13.77;12.30;;;;;;;25.90;100.00;98939.28;5116419;27;20711;-77
2022/07/01 05:08:51;;;;;;;13.35;12.25;;;;;;;26.24;100.00;98954.63;5109687;27;20228;-76
2022/07/01 05:11:18;;;;;;;12.90;11.60;;;;;;;26.54;100.00;98966.28;5107467;27;20224;-77
2022/07/01 05:13:44;;;;;;;11.88;10.77;;;;;;;26.86;100.00;98973.66;5110221;27;20260;-77
2022/07/01 05:16:11;;;;;;;12.50;10.60;;;;;;;27.08;100.00;98977.91;5107809;27;20232;-77
2022/07/01 05:24:09;;;;;;;20.77;12.32;;;;;;;27.27;100.00;98982.81;5115627;27;20273;-77
2022/07/01 05:26:36;;;;;;;21.20;11.18;;;;;;;27.47;100.00;98990.94;5110422;27;20250;-77
2022/07/01 05:29:04;;;;;;;19.17;11.70;;;;;;;27.71;100.00;99001.13;5105318;27;20741;-77
2022/07/01 05:31:31;;;;;;;16.20;11.30;;;;;;;27.98;100.00;98994.06;5110667;27;20773;-77
2022/07/01 05:33:57;;;;;;;14.00;10.93;;;;;;;28.20;98.90;99004.53;5091268;28;20306;-77
2022/07/01 05:36:30;;;;;;;14.57;10.88;;;;;;;28.34;98.90;99004.13;5090576;27;20211;-76
2022/07/01 05:38:57;;;;;;;11.60;10.15;;;;;;;28.36;98.71;99010.91;5111327;27;20302;-77
2022/07/01 05:41:24;;;;;;;10.80;9.80;;;;;;;28.53;97.75;99008.97;5098758;27;20225;-76
2022/07/01 05:43:50;;;;;;;11.82;10.45;;;;;;;28.59;94.16;99005.59;5111296;27;20220;-77
2022/07/01 05:46:17;;;;;;;11.32;10.25;;;;;;;28.53;94.34;98996.00;5106555;27;20277;-77
2022/07/01 05:48:43;;;;;;;12.85;10.10;;;;;;;28.63;94.50;99006.50;5100240;28;20240;-77
2022/07/01 05:51:10;;;;;;;10.07;9.20;;;;;;;28.79;92.37;99006.53;5105522;28;20747;-77
2022/07/01 05:53:37;;;;;;;10.02;9.02;;;;;;;28.95;89.94;99010.09;5090582;28;20227;-78
2022/07/01 05:56:04;;;;;;;11.20;9.45;;;;;;;28.92;89.18;99016.34;5105076;28;20234;-77
2022/07/01 05:58:30;;;;;;;10.95;9.40;;;;;;;28.82;90.07;99009.41;5110310;28;20246;-76
2022/07/01 06:00:57;;;;;;;10.38;9.40;;;;;;;28.74;92.01;99002.06;5106490;28;20607;-77
2022/07/01 06:03:35;;;;;;;12.27;9.45;;;;;;;28.67;93.29;99012.09;5106732;28;20234;-79
2022/07/01 06:06:01;;;;;;;11.13;9.52;;;;;;;28.65;92.71;99009.69;5085819;28;20303;-76
2022/07/01 06:08:28;;;;;;;14.73;9.98;;;;;;;28.86;90.61;99017.75;5106983;28;20251;-77
2022/07/01 06:10:55;;;;;;;10.85;9.77;;;;;;;29.04;90.28;99013.47;5105819;28;20216;-79
2022/07/01 06:13:22;;;;;;;10.93;9.52;;;;;;;29.30;83.94;99012.97;5105071;27;20214;-78
2022/07/01 06:15:48;;;;;;;10.55;9.45;;;;;;;29.31;82.37;99014.53;5105725;28;20242;-76
2022/07/01 06:18:15;;;;;;;10.80;9.57;;;;;;;29.42;81.22;99018.38;5104705;28;20215;-77
2022/07/01 06:20:42;;;;;;;10.50;8.68;;;;;;;29.54;79.46;99023.75;5095420;28;20596;-76
2022/07/01 06:23:08;;;;;;;8.73;7.93;;;;;;;29.63;75.28;99034.63;5110313;27;20247;-77
2022/07/01 06:25:35;;;;;;;5.63;5.13;;;;;;;29.70;67.27;99032.00;5096428;27;20238;-77
2022/07/01 06:28:02;;;;;;;5.15;3.90;;;;;;;29.83;65.66;99039.00;5091693;27;20238;-77
2022/07/01 06:30:28;;;;;;;3.33;2.88;;;;;;;29.75;59.54;99042.78;5104416;27;20758;-77
2022/07/01 06:32:55;;;;;;;3.42;2.30;;;;;;;29.70;56.75;99045.81;5109094;27;20231;-77
2022/07/01 06:35:22;;;;;;;5.40;1.92;;;;;;;29.55;55.53;99039.16;5091562;28;20231;-78
2022/07/01 06:37:48;;;;;;;5.97;2.10;;;;;;;29.56;55.45;99051.00;5110850;27;20687;-77
2022/07/01 06:40:21;;;;;;;2.33;1.77;;;;;;;29.60;52.94;99041.66;5109068;28;20227;-76
2022/07/01 06:42:49;;;;;;;3.30;1.80;;;;;;;29.48;54.70;99046.50;5111669;28;20226;-76
2022/07/01 06:45:16;;;;;;;3.80;1.90;;;;;;;29.57;54.28;99047.91;5106891;27;20473;-77
2022/07/01 06:47:43;;;;;;;2.08;1.67;;;;;;;29.53;56.72;99054.50;5110208;28;20231;-77
2022/07/01 06:50:09;;;;;;;3.97;1.90;;;;;;;29.51;55.01;99059.56;5102137;28;20688;-77
2022/07/01 06:52:36;;;;;;;1.70;1.60;;;;;;;29.60;55.26;99065.69;5088481;28;20233;-77
2022/07/01 06:55:03;;;;;;;2.40;1.52;;;;;;;29.46;53.93;99063.41;5107083;28;20368;-78
2022/07/01 06:57:30;;;;;;;3.70;1.90;;;;;;;29.31;57.16;99056.72;5109768;28;20222;-77
2022/07/01 06:59:56;;;;;;;5.07;2.00;;;;;;;29.35;55.24;99062.31;5106332;28;20231;-76
2022/07/01 07:02:23;;;;;;;3.58;1.90;;;;;;;29.02;54.44;99061.88;5109895;28;20231;-78
2022/07/01 07:04:57;;;;;;;3.42;2.05;;;;;;;28.96;56.50;99063.28;5113914;28;20231;-80
2022/07/01 07:07:27;;;;;;;2.28;1.98;;;;;;;28.93;59.09;99066.78;5104072;28;20242;-77
2022/07/01 07:09:55;;;;;;;2.08;1.67;;;;;;;28.72;57.10;99059.53;5102830;28;20257;-79
2022/07/01 07:12:23;;;;;;;2.15;1.95;;;;;;;28.61;56.86;99057.59;5107107;28;20373;-81
2022/07/01 07:14:49;;;;;;;3.22;2.15;;;;;;;28.71;57.06;99057.13;5104034;28;20327;-78
2022/07/01 07:17:16;;;;;;;2.70;1.77;;;;;;;28.55;59.18;99056.28;5101623;28;20240;-76
2022/07/01 07:19:43;;;;;;;1.85;1.70;;;;;;;28.74;58.00;99062.72;5095666;28;20318;-80
2022/07/01 07:22:10;;;;;;;3.53;1.90;;;;;;;28.93;57.24;99059.28;5105708;28;20330;-77
2022/07/01 07:24:37;;;;;;;3.75;1.90;;;;;;;29.04;58.32;99065.88;5091594;28;20334;-78
2022/07/01 07:27:04;;;;;;;3.58;2.20;;;;;;;29.09;55.40;99062.03;5106778;28;20230;-77
2022/07/01 07:29:31;;;;;;;2.95;2.20;;;;;;;29.12;56.96;99055.81;5119704;28;20232;-79
2022/07/01 07:31:57;;;;;;;4.75;2.20;;;;;;;29.27;54.88;99066.03;5090796;28;20224;-77
2022/07/01 07:34:24;;;;;;;4.07;2.10;;;;;;;29.43;54.62;99072.41;5111780;28;20778;-81
2022/07/01 07:36:51;;;;;;;4.50;2.00;;;;;;;29.55;53.68;99069.53;5109596;28;20314;-77
2022/07/01 07:39:17;;;;;;;2.63;2.08;;;;;;;29.84;54.08;99056.38;5112801;27;20223;-77
2022/07/01 07:41:44;;;;;;;4.43;2.10;;;;;;;29.96;52.60;99059.03;5110337;27;20234;-78
2022/07/01 07:44:11;;;;;;;3.13;2.10;;;;;;;30.04;53.74;99061.59;5114436;27;20302;-77
2022/07/01 07:46:38;;;;;;;3.92;2.25;;;;;;;30.22;52.64;99066.69;5115116;27;20254;-77
2022/07/01 07:49:04;;;;;;;4.13;2.13;;;;;;;30.24;52.07;99064.34;5112718;27;20223;-78
2022/07/01 07:51:31;;;;;;;2.50;2.30;;;;;;;30.21;51.86;99062.31;5115666;27;21037;-77
2022/07/01 07:53:58;;;;;;;4.53;2.53;;;;;;;29.96;52.32;99053.50;5113352;27;20280;-77
2022/07/01 07:56:24;;;;;;;2.95;2.25;;;;;;;30.17;52.66;99065.00;5113269;27;20349;-76
2022/07/01 07:58:51;;;;;;;3.00;2.30;;;;;;;30.00;52.12;99055.16;5105578;27;20323;-77
2022/07/01 08:01:18;;;;;;;4.63;2.67;;;;;;;30.10;52.20;99056.56;5108210;27;20242;-78
2022/07/01 08:03:45;;;;;;;4.50;2.55;;;;;;;30.02;53.62;99058.38;5109193;27;20230;-76
2022/07/01 08:06:12;;;;;;;5.18;3.10;;;;;;;30.09;54.14;99052.22;5114861;27;20576;-78
2022/07/01 08:08:39;;;;;;;2.78;2.50;;;;;;;30.18;54.87;99056.38;5113183;27;20218;-79
2022/07/01 08:11:06;;;;;;;4.07;2.65;;;;;;;30.34;53.58;99058.25;5085976;28;20307;-79
2022/07/01 08:13:32;;;;;;;3.60;2.70;;;;;;;30.38;52.30;99056.34;5109693;27;20733;-81
2022/07/01 08:15:59;;;;;;;2.70;2.47;;;;;;;30.54;52.18;99046.03;5114236;27;20278;-77
2022/07/01 08:18:26;;;;;;;3.33;2.80;;;;;;;30.49;52.69;99052.66;5110832;27;20276;-78
2022/07/01 08:20:53;;;;;;;5.05;2.95;;;;;;;30.54;52.15;99055.13;5111705;27;20601;-77
2022/07/01 08:23:20;;;;;;;3.05;2.83;;;;;;;30.68;52.42;99053.81;5114892;27;20227;-78
2022/07/01 08:25:50;;;;;;;3.20;2.78;;;;;;;30.85;51.39;99061.63;5109360;27;20662;-77
2022/07/01 08:28:17;;;;;;;4.88;3.05;;;;;;;31.05;51.34;99052.13;5094200;28;20310;-77
2022/07/01 08:30:44;;;;;;;2.97;2.78;;;;;;;31.13;49.47;99055.81;5109178;27;20681;-77
2022/07/01 08:33:11;;;;;;;3.30;2.95;;;;;;;31.23;49.75;99047.69;5108255;27;20220;-77
2022/07/01 08:35:37;;;;;;;4.38;3.70;;;;;;;31.40;47.92;99044.41;5106727;27;20216;-77
2022/07/01 08:38:04;;;;;;;3.25;3.03;;;;;;;31.54;48.40;99045.81;5104733;27;20719;-77
2022/07/01 08:40:32;;;;;;;4.05;3.28;;;;;;;31.61;46.44;99048.69;5111955;27;20579;-78
2022/07/01 08:43:04;;;;;;;6.32;3.35;;;;;;;31.61;47.85;99048.69;5109211;27;20231;-78
2022/07/01 08:45:32;;;;;;;3.92;3.53;;;;;;;31.42;47.18;99050.38;5121321;27;20247;-78
2022/07/01 08:48:03;;;;;;;3.97;3.67;;;;;;;31.40;48.13;99047.16;5116130;27;20229;-78
2022/07/01 08:50:35;;;;;;;4.07;3.67;;;;;;;31.07;47.82;99052.56;5112995;27;20624;-80
2022/07/01 08:53:03;;;;;;;4.20;3.55;;;;;;;31.19;47.99;99057.91;5115458;27;20235;-77
2022/07/01 08:55:30;;;;;;;3.92;3.60;;;;;;;31.47;46.90;99063.09;5095734;27;20645;-77
2022/07/01 08:57:57;;;;;;;4.90;3.67;;;;;;;31.60;47.68;99060.94;5103490;27;20660;-77
2022/07/01 09:00:30;;;;;;;3.65;3.35;;;;;;;31.57;47.00;99065.28;5119693;27;20299;-78
2022/07/01 09:02:59;;;;;;;4.03;3.72;;;;;;;31.79;45.77;99058.88;5121661;27;20219;-78
2022/07/01 09:05:27;;;;;;;3.95;3.60;;;;;;;31.91;46.19;99057.84;5110970;28;20246;-79
2022/07/01 09:08:04;;;;;;;5.22;3.72;;;;;;;32.06;45.59;99067.94;5124356;27;20237;-78
2022/07/01 09:10:36;;;;;;;4.13;3.83;;;;;;;32.17;45.67;99063.38;5101158;27;20543;-77
2022/07/01 09:13:07;;;;;;;4.57;3.80;;;;;;;32.22;46.32;99057.50;5122748;27;20211;-80
2022/07/01 09:15:35;;;;;;;4.60;4.20;;;;;;;32.19;44.40;99072.13;5109908;27;20244;-78
2022/07/01 09:18:09;;;;;;;5.25;4.03;;;;;;;32.21;45.94;99063.41;5087564;28;20314;-77
2022/07/01 09:20:39;;;;;;;5.13;3.97;;;;;;;32.40;44.43;99063.25;5107652;27;20234;-77
2022/07/01 09:23:17;;;;;;;5.57;3.85;;;;;;;32.26;44.40;99061.09;5108625;27;20221;-78
2022/07/01 09:25:47;;;;;;;6.25;4.15;;;;;;;32.29;43.85;99056.75;5108575;27;20698;-77
2022/07/01 09:28:23;;;;;;;4.30;3.90;;;;;;;32.46;43.64;99058.97;5098536;27;20239;-77
2022/07/01 09:30:52;;;;;;;4.93;4.00;;;;;;;32.34;44.83;99056.44;5110042;28;20242;-77
2022/07/01 09:33:20;;;;;;;6.20;4.68;;;;;;;32.58;43.67;99049.56;5105076;27;20315;-78
2022/07/01 09:35:50;;;;;;;4.70;4.30;;;;;;;32.62;44.01;99037.34;5109061;27;20286;-78
2022/07/01 09:38:19;;;;;;;5.07;4.22;;;;;;;32.67;43.74;99044.53;5107825;27;20215;-79
2022/07/01 09:41:03;;;;;;;7.57;4.43;;;;;;;32.57;45.96;99046.00;5098764;28;20707;-77
2022/07/01 09:43:34;;;;;;;5.80;4.82;;;;;;;32.52;45.50;99045.56;5102208;27;20334;-76
2022/07/01 09:46:09;;;;;;;5.20;4.45;;;;;;;32.73;42.78;99043.84;5105819;27;20236;-76
2022/07/01 09:48:36;;;;;;;5.38;4.05;;;;;;;32.83;42.59;99053.44;5084751;28;20245;-77
2022/07/01 09:51:05;;;;;;;4.47;4.15;;;;;;;33.03;42.11;99051.25;5102990;27;20239;-77
2022/07/01 09:53:40;;;;;;;8.25;4.57;;;;;;;33.05;42.32;99049.69;5105042;28;20231;-77
2022/07/01 09:56:06;;;;;;;5.25;4.25;;;;;;;33.09;41.25;99050.50;5083899;28;20232;-79
2022/07/01 09:58:35;;;;;;;4.80;4.40;;;;;;;33.22;40.28;99047.47;5106091;27;20235;-76
2022/07/01 10:01:03;;;;;;;4.90;4.40;;;;;;;33.19;40.46;99046.25;5107927;27;20283;-79
2022/07/01 10:03:32;;;;;;;5.60;5.00;;;;;;;33.39;41.54;99042.06;5108637;28;20235;-77
2022/07/01 10:06:18;;;;;;;4.97;4.50;;;;;;;33.49;42.81;99035.78;5090300;28;20723;-80
2022/07/01 10:09:06;;;;;;;5.88;4.60;;;;;;;33.72;41.16;99040.31;5104606;27;20223;-78
2022/07/01 10:11:42;;;;;;;4.93;4.63;;;;;;;33.78;41.55;99044.34;5105842;27;21223;-77
2022/07/01 10:14:11;;;;;;;6.32;5.00;;;;;;;33.87;39.62;99037.25;5084514;27;20223;-77
2022/07/01 10:16:38;;;;;;;4.78;4.30;;;;;;;33.92;41.14;99033.28;5091684;28;20215;-77
2022/07/01 10:19:22;;;;;;;5.35;4.70;;;;;;;34.02;39.50;99038.09;5091505;28;20739;-78
2022/07/01 10:21:49;;;;;;;5.57;5.18;;;;;;;34.16;39.47;99035.38;5105263;27;20235;-77
2022/07/01 10:24:17;;;;;;;5.75;5.25;;;;;;;34.32;40.13;99035.06;5115539;27;20306;-76
2022/07/01 10:26:45;;;;;;;5.80;5.45;;;;;;;34.36;39.76;99038.66;5113477;27;20250;-77
2022/07/01 10:29:32;;;;;;;5.22;4.75;;;;;;;34.52;38.55;99038.31;5105577;27;20794;-78
2022/07/01 10:32:06;;;;;;;5.63;5.15;;;;;;;34.48;37.83;99032.75;5094105;27;20231;-77
2022/07/01 10:34:34;;;;;;;5.80;5.30;;;;;;;34.64;38.70;99027.59;5111988;27;20236;-77
2022/07/01 10:37:06;;;;;;;5.95;5.53;;;;;;;34.70;38.54;99028.84;5106053;28;20232;-76
2022/07/01 10:39:58;;;;;;;6.00;5.50;;;;;;;34.82;37.98;99034.03;5107950;27;20232;-77
2022/07/01 10:42:33;;;;;;;6.45;5.88;;;;;;;34.87;37.93;99030.84;5101414;28;20292;-77
2022/07/01 10:45:09;;;;;;;6.68;5.50;;;;;;;35.00;37.64;99030.44;5106815;27;20235;-77
2022/07/01 10:47:36;;;;;;;6.93;5.93;;;;;;;35.17;35.39;99018.56;5106755;27;20254;-77
2022/07/01 10:50:10;;;;;;;6.65;6.00;;;;;;;34.95;36.07;99026.06;5094876;27;20724;-77
2022/07/01 10:52:38;;;;;;;6.47;5.70;;;;;;;34.91;36.92;99020.50;5106416;28;20207;-77
2022/07/01 10:55:08;;;;;;;7.78;5.50;;;;;;;35.03;36.46;99022.13;5094704;28;20226;-78
2022/07/01 10:57:40;;;;;;;5.78;5.38;;;;;;;34.98;36.92;99027.28;5084053;28;20223;-77
2022/07/01 11:00:07;;;;;;;5.97;5.47;;;;;;;35.23;36.06;99019.78;5101453;28;20688;-78
2022/07/01 11:02:35;;;;;;;6.65;5.68;;;;;;;35.26;36.18;99019.75;5107754;28;20314;-77
2022/07/01 11:05:10;;;;;;;7.00;6.50;;;;;;;35.50;35.40;99011.78;5101612;28;20242;-78
2022/07/01 11:07:39;;;;;;;6.45;5.50;;;;;;;35.65;35.61;99014.13;5083624;28;20256;-78
2022/07/01 11:10:07;;;;;;;5.80;5.25;;;;;;;35.92;34.33;99008.91;5083576;28;20227;-78
2022/07/01 11:12:34;;;;;;;5.93;5.40;;;;;;;35.99;35.28;99008.06;5112158;27;20257;-78
2022/07/01 11:15:01;;;;;;;5.97;5.38;;;;;;;36.12;34.23;99004.44;5111847;27;20250;-78
2022/07/01 11:17:28;;;;;;;6.78;5.47;;;;;;;36.16;35.13;98996.84;5116375;27;20302;-78
2022/07/01 11:20:01;;;;;;;6.45;5.85;;;;;;;36.24;35.57;99000.44;5116508;27;20222;-78
2022/07/01 11:22:30;;;;;;;7.13;6.28;;;;;;;36.35;34.21;99003.94;5109172;28;20742;-78
2022/07/01 11:25:06;;;;;;;6.55;5.90;;;;;;;36.23;34.41;98995.25;5108207;27;20323;-78
2022/07/01 11:27:33;;;;;;;5.80;5.35;;;;;;;36.13;33.78;98982.94;5113582;27;20235;-78
2022/07/01 11:30:10;;;;;;;6.00;5.43;;;;;;;35.91;34.58;98985.00;5095511;27;20664;-80
2022/07/01 11:32:40;;;;;;;6.70;4.88;;;;;;;35.82;35.76;98981.88;5110989;27;20235;-78
2022/07/01 11:39:21;;;;;;;5.35;4.93;;;;;;;35.91;34.75;98984.22;5108782;27;20234;-78
2022/07/01 11:41:01;;;;;;;5.80;5.03;;;;;;;36.21;33.60;98973.34;5092522;27;20224;-78